No particular awareness of the weather is required.    There are no Weather-warnings


Meteo18 Weather Cam more information Meteo18 Weather Cam


Thunder radar more information blitzortung!


Rain radar more information rain snow radar


Visit our other weather sites:

Template documentation
and downloads

And another site



Weather Underground History page Text

Daily Summary for March 10, 2017 Units:  English    Metric   Both
« Previous Day
Next Day »
Daily Weekly Monthly Yearly Custom
  High: Low: Average:
Temperature: TemperatureC °F 9.1 °F 11.8 °F
Dew Point: DewpointC °F 5.8 °F 8.9 °F
Humidity: Humidity % 59 % 83 %
Wind Speed: WindSpeedKMH mph 0.0 mph 2.8 mph
Wind Gust: WindSpeedGustKMH mph - -
Wind:- - ENE
Pressure: PressurehPa in 1023.2 in -
Precipitation: 0.5 in    
Historical Graphs
 
 
Tabular Data for March 10, 2017
Time Temperature Dew Point Pressure Wind Wind Speed Wind Gust Humidity Rainfall Rate (Hourly)
TemperatureC °F DewpointC °F PressurehPa in Calm     Humidity % HourlyPrecipMM in
00:02 11.2 °F 9.8 °F 1027.3 in Calm     91 % 0.0 in
00:12 11.1 °F 9.7 °F 1027.3 in Calm     91 % 0.0 in
00:17 11.0 °F 9.8 °F 1027.3 in Calm     92 % 0.0 in
00:22 11.1 °F 9.8 °F 1027.3 in Calm     92 % 0.0 in
00:32 11.2 °F 9.8 °F 1027.3 in Calm     91 % 0.0 in
00:37 11.2 °F 9.8 °F 1027.3 in Calm     91 % 0.0 in
00:47 11.2 °F 9.8 °F 1027.7 in Calm     91 % 0.0 in
00:52 11.2 °F 9.6 °F 1027.7 in Calm     90 % 0.0 in
00:57 11.2 °F 9.6 °F 1027.7 in Calm     90 % 0.0 in
01:02 11.2 °F 9.8 °F 1027.7 in Calm     91 % 0.0 in
01:07 11.2 °F 9.8 °F 1027.7 in Calm     91 % 0.0 in
01:12 11.2 °F 9.6 °F 1027.7 in Calm     90 % 0.0 in
01:17 11.2 °F 9.6 °F 1027.7 in Calm     90 % 0.0 in
01:22 11.2 °F 9.8 °F 1027.7 in Calm     91 % 0.0 in
01:27 11.3 °F 9.9 °F 1027.7 in Calm     91 % 0.0 in
01:32 11.3 °F 9.7 °F 1027.7 in Calm     90 % 0.0 in
01:37 11.2 °F 9.8 °F 1027.7 in Calm     91 % 0.0 in
01:42 11.2 °F 9.8 °F 1027.7 in Calm     91 % 0.0 in
01:47 11.2 °F 9.8 °F 1027.7 in Calm     91 % 0.0 in
01:52 11.3 °F 9.9 °F 1027.7 in Calm     91 % 0.0 in
01:57 11.3 °F 9.9 °F 1027.7 in Calm     91 % 0.0 in
02:02 11.3 °F 9.9 °F 1027.7 in Calm     91 % 0.0 in
02:07 11.3 °F 10.0 °F 1027.7 in Calm     92 % 0.0 in
02:12 11.3 °F 10.0 °F 1027.7 in Calm     92 % 0.0 in
02:17 11.2 °F 9.9 °F 1027.3 in Calm     92 % 0.0 in
02:22 11.2 °F 9.9 °F 1027.3 in Calm     92 % 0.0 in
02:27 11.2 °F 9.9 °F 1027.3 in WNW 1.6 mph 3.2 mph 92 % 0.0 in
02:32 11.3 °F 10.0 °F 1027.3 in Calm   3.2 mph 92 % 0.0 in
02:37 11.2 °F 9.9 °F 1027.3 in Calm   3.2 mph 92 % 0.0 in
02:42 11.1 °F 9.8 °F 1027.3 in Calm   3.2 mph 92 % 0.0 in
02:47 10.9 °F 9.8 °F 1027.3 in Calm   3.2 mph 93 % 0.0 in
02:57 10.8 °F 9.9 °F 1027.3 in NE 3.2 mph 3.2 mph 94 % 0.0 in
03:02 10.7 °F 9.8 °F 1027.3 in East 3.2 mph 4.8 mph 94 % 0.0 in
03:07 10.7 °F 9.8 °F 1027.3 in ENE 1.6 mph 4.8 mph 94 % 0.0 in
03:12 10.6 °F 9.8 °F 1027.3 in ENE 1.6 mph 4.8 mph 95 % 0.0 in
03:22 10.5 °F 9.7 °F 1027.3 in Calm   3.2 mph 95 % 0.3 in
03:27 10.5 °F 9.7 °F 1027.3 in Calm   3.2 mph 95 % 0.3 in
03:32 10.4 °F 9.6 °F 1027.3 in Calm     95 % 0.3 in
03:37 10.4 °F 9.6 °F 1027.3 in Calm     95 % 0.3 in
03:42 10.4 °F 9.8 °F 1027.3 in Calm     96 % 0.5 in
03:47 10.4 °F 9.8 °F 1027.3 in Calm     96 % 0.5 in
03:52 10.4 °F 9.8 °F 1027.3 in Calm     96 % 0.5 in
03:57 10.4 °F 9.8 °F 1027.0 in Calm     96 % 0.5 in
04:02 10.4 °F 9.8 °F 1027.0 in Calm     96 % 0.5 in
04:12 10.4 °F 9.8 °F 1027.0 in Calm     96 % 0.5 in
04:17 10.3 °F 9.7 °F 1027.0 in Calm     96 % 0.5 in
04:22 10.3 °F 9.7 °F 1027.0 in Calm     96 % 0.5 in
04:27 10.3 °F 9.7 °F 1027.0 in Calm     96 % 0.5 in
04:32 10.3 °F 9.7 °F 1027.0 in Calm     96 % 0.5 in
04:37 10.3 °F 9.7 °F 1027.0 in Calm     96 % 0.3 in
04:42 10.3 °F 9.7 °F 1027.0 in Calm     96 % 0.3 in
04:47 10.3 °F 9.7 °F 1027.0 in Calm     96 % 0.3 in
04:52 10.3 °F 9.7 °F 1027.0 in Calm     96 % 0.3 in
04:57 10.3 °F 9.7 °F 1027.0 in Calm     96 % 0.0 in
05:02 10.3 °F 9.7 °F 1027.0 in Calm     96 % 0.0 in
05:12 10.4 °F 9.9 °F 1027.0 in Calm     97 % 0.0 in
05:17 10.4 °F 9.8 °F 1027.0 in Calm     96 % 0.0 in
05:22 10.3 °F 9.7 °F 1027.0 in Calm     96 % 0.0 in
05:27 10.3 °F 9.8 °F 1027.0 in Calm     97 % 0.0 in
05:32 10.2 °F 9.7 °F 1027.0 in Calm     97 % 0.0 in
05:37 10.2 °F 9.7 °F 1027.0 in Calm     97 % 0.0 in
05:42 10.3 °F 9.8 °F 1027.0 in Calm     97 % 0.0 in
05:47 10.3 °F 9.8 °F 1027.0 in Calm     97 % 0.0 in
05:52 10.3 °F 9.8 °F 1027.0 in East 1.6 mph   97 % 0.0 in
05:57 10.3 °F 9.8 °F 1027.0 in ENE 1.6 mph 3.2 mph 97 % 0.0 in
06:02 10.3 °F 9.8 °F 1027.0 in Calm   3.2 mph 97 % 0.0 in
06:07 10.2 °F 9.7 °F 1027.0 in Calm   3.2 mph 97 % 0.0 in
06:12 10.2 °F 9.7 °F 1027.0 in East 1.6 mph 3.2 mph 97 % 0.0 in
06:17 10.2 °F 9.7 °F 1027.0 in East 1.6 mph 4.8 mph 97 % 0.0 in
06:22 10.2 °F 9.7 °F 1027.0 in Calm   4.8 mph 97 % 0.0 in
06:32 10.2 °F 9.7 °F 1027.0 in Calm   4.8 mph 97 % 0.0 in
06:42 10.1 °F 9.6 °F 1027.0 in Calm   4.8 mph 97 % 0.0 in
06:52 10.1 °F 9.6 °F 1027.3 in NE 6.4 mph 6.4 mph 97 % 0.0 in
06:57 10.1 °F 9.6 °F 1027.3 in NE 8.0 mph 8.0 mph 97 % 0.0 in
07:02 10.1 °F 9.6 °F 1027.0 in NE 3.2 mph 9.7 mph 97 % 0.0 in
07:07 10.0 °F 9.5 °F 1027.0 in NE 1.6 mph 11.3 mph 97 % 0.0 in
07:12 9.9 °F 9.4 °F 1027.0 in ENE 1.6 mph 11.3 mph 97 % 0.0 in
07:17 9.9 °F 9.4 °F 1027.0 in NE 3.2 mph 4.8 mph 97 % 0.0 in
07:27 9.8 °F 9.3 °F 1027.0 in NE 1.6 mph 4.8 mph 97 % 0.0 in
07:32 9.8 °F 9.3 °F 1027.0 in NE 1.6 mph 4.8 mph 97 % 0.0 in
07:37 9.8 °F 9.3 °F 1027.0 in NNE 1.6 mph 6.4 mph 97 % 0.0 in
07:42 9.8 °F 9.3 °F 1027.0 in NNE 1.6 mph 6.4 mph 97 % 0.0 in
07:47 9.8 °F 9.3 °F 1027.0 in NE 4.8 mph 6.4 mph 97 % 0.0 in
07:52 9.8 °F 9.3 °F 1027.0 in NE 3.2 mph 6.4 mph 97 % 0.0 in
07:57 9.8 °F 9.3 °F 1027.3 in NE 4.8 mph 8.0 mph 97 % 0.0 in
08:02 9.8 °F 9.3 °F 1027.3 in NE 4.8 mph 8.0 mph 97 % 0.0 in
08:07 9.8 °F 9.3 °F 1027.3 in NE 4.8 mph 8.0 mph 97 % 0.0 in
08:12 9.8 °F 9.3 °F 1027.3 in NE 6.4 mph 8.0 mph 97 % 0.0 in
08:17 9.8 °F 9.3 °F 1027.3 in NNE 6.4 mph 8.0 mph 97 % 0.0 in
08:22 9.9 °F 9.4 °F 1027.3 in NNE 3.2 mph 8.0 mph 97 % 0.0 in
08:27 9.9 °F 9.4 °F 1027.3 in NE 3.2 mph 8.0 mph 97 % 0.0 in
08:32 10.1 °F 9.6 °F 1027.3 in NE 1.6 mph 8.0 mph 97 % 0.0 in
08:37 10.2 °F 9.7 °F 1027.3 in NE 1.6 mph 8.0 mph 97 % 0.0 in
08:42 10.3 °F 9.8 °F 1027.3 in NE 4.8 mph 8.0 mph 97 % 0.0 in
08:47 10.4 °F 9.9 °F 1027.3 in NNE 4.8 mph 6.4 mph 97 % 0.0 in
08:52 10.6 °F 10.0 °F 1027.3 in ENE 4.8 mph 6.4 mph 96 % 0.0 in
08:57 10.7 °F 10.1 °F 1027.7 in ENE 6.4 mph 9.7 mph 96 % 0.0 in
09:02 10.8 °F 10.2 °F 1027.3 in ENE 1.6 mph 9.7 mph 96 % 0.0 in
09:12 11.1 °F 10.2 °F 1027.7 in ENE 1.6 mph 8.0 mph 94 % 0.0 in
09:17 11.2 °F 10.3 °F 1027.7 in East 4.8 mph 6.4 mph 94 % 0.0 in
09:22 11.2 °F 10.3 °F 1027.7 in ENE 6.4 mph 6.4 mph 94 % 0.0 in
09:27 11.2 °F 10.1 °F 1027.7 in ENE 3.2 mph 8.0 mph 93 % 0.0 in
09:32 11.3 °F 10.2 °F 1027.7 in East 4.8 mph 8.0 mph 93 % 0.0 in
09:37 11.4 °F 10.3 °F 1027.7 in Calm   8.0 mph 93 % 0.0 in
09:42 11.5 °F 10.2 °F 1027.7 in NE 8.0 mph 8.0 mph 92 % 0.0 in
09:47 11.4 °F 10.0 °F 1027.7 in NE 3.2 mph 8.0 mph 91 % 0.0 in
09:52 11.4 °F 10.1 °F 1027.7 in NNE 3.2 mph 8.0 mph 92 % 0.0 in
09:57 11.3 °F 9.9 °F 1027.7 in NE 3.2 mph 11.3 mph 91 % 0.0 in
10:02 11.3 °F 9.9 °F 1027.7 in NE 4.8 mph 11.3 mph 91 % 0.0 in
10:07 11.4 °F 10.0 °F 1027.7 in NE 4.8 mph 14.5 mph 91 % 0.0 in
10:12 11.5 °F 9.7 °F 1027.7 in ENE 6.4 mph 14.5 mph 89 % 0.0 in
10:17 11.5 °F 9.7 °F 1027.7 in NE 6.4 mph 14.5 mph 89 % 0.0 in
10:22 11.5 °F 9.7 °F 1027.7 in NNE 8.0 mph 14.5 mph 89 % 0.0 in
10:32 11.4 °F 9.8 °F 1027.7 in NNE 9.7 mph 11.3 mph 90 % 0.0 in
10:37 11.6 °F 10.0 °F 1027.7 in NNE 1.6 mph 11.3 mph 90 % 0.0 in
10:42 11.7 °F 9.9 °F 1027.7 in NNE 6.4 mph 11.3 mph 89 % 0.0 in
10:47 11.8 °F 10.0 °F 1027.7 in East 4.8 mph 9.7 mph 89 % 0.0 in
10:52 11.9 °F 10.0 °F 1027.7 in NE 6.4 mph 9.7 mph 88 % 0.0 in
10:57 12.1 °F 10.2 °F 1027.7 in NE 8.0 mph 9.7 mph 88 % 0.0 in
11:02 12.1 °F 10.0 °F 1027.7 in East 6.4 mph 14.5 mph 87 % 0.0 in
11:12 12.2 °F 9.9 °F 1027.7 in NNW 4.8 mph 14.5 mph 86 % 0.0 in
11:17 12.2 °F 9.9 °F 1027.7 in NE 3.2 mph 12.9 mph 86 % 0.0 in
11:22 12.4 °F 9.9 °F 1027.7 in NE 4.8 mph 11.3 mph 85 % 0.0 in
11:27 12.3 °F 9.7 °F 1027.7 in NNE 1.6 mph 11.3 mph 84 % 0.0 in
11:32 12.5 °F 10.0 °F 1027.7 in Calm   11.3 mph 85 % 0.0 in
11:37 12.5 °F 9.7 °F 1027.7 in NNE 9.7 mph 11.3 mph 83 % 0.0 in
11:42 12.4 °F 9.8 °F 1027.3 in NNE 1.6 mph 14.5 mph 84 % 0.0 in
11:47 12.4 °F 9.4 °F 1027.3 in NNE 4.8 mph 14.5 mph 82 % 0.0 in
11:52 12.6 °F 9.8 °F 1027.3 in NE 4.8 mph 14.5 mph 83 % 0.0 in
11:57 12.6 °F 9.8 °F 1027.3 in NNE 4.8 mph 11.3 mph 83 % 0.0 in
12:02 12.8 °F 10.0 °F 1027.3 in NNE 8.0 mph 11.3 mph 83 % 0.0 in
12:07 12.8 °F 9.6 °F 1027.0 in Calm   14.5 mph 81 % 0.0 in
12:12 12.9 °F 9.7 °F 1027.0 in ENE 3.2 mph 14.5 mph 81 % 0.0 in
12:17 12.9 °F 9.9 °F 1027.0 in North 1.6 mph 12.9 mph 82 % 0.0 in
12:22 13.2 °F 10.0 °F 1027.0 in North 8.0 mph 12.9 mph 81 % 0.0 in
12:32 13.0 °F 9.6 °F 1027.0 in NNE 6.4 mph 14.5 mph 80 % 0.0 in
12:37 13.2 °F 9.6 °F 1027.0 in North 4.8 mph 16.1 mph 79 % 0.0 in
12:42 13.4 °F 9.6 °F 1027.0 in NNE 4.8 mph 16.1 mph 78 % 0.0 in
12:47 13.4 °F 9.6 °F 1026.6 in North 3.2 mph 8.0 mph 78 % 0.0 in
12:52 13.6 °F 9.8 °F 1026.6 in NNE 8.0 mph 8.0 mph 78 % 0.0 in
12:57 13.4 °F 9.4 °F 1026.6 in Calm   9.7 mph 77 % 0.0 in
13:02 13.5 °F 9.5 °F 1026.6 in NE 6.4 mph 9.7 mph 77 % 0.0 in
13:07 13.4 °F 9.6 °F 1026.6 in NE 6.4 mph 14.5 mph 78 % 0.0 in
13:12 13.7 °F 9.9 °F 1026.3 in NNE 8.0 mph 14.5 mph 78 % 0.0 in
13:17 13.7 °F 9.5 °F 1026.3 in NNE 4.8 mph 11.3 mph 76 % 0.0 in
13:22 13.9 °F 9.7 °F 1026.3 in NE 8.0 mph 12.9 mph 76 % 0.0 in
13:27 14.1 °F 10.1 °F 1026.0 in NE 11.3 mph 12.9 mph 77 % 0.0 in
13:32 13.9 °F 9.5 °F 1026.0 in NE 8.0 mph 12.9 mph 75 % 0.0 in
13:37 13.9 °F 9.5 °F 1026.0 in ENE 6.4 mph 12.9 mph 75 % 0.0 in
13:42 14.1 °F 9.3 °F 1026.0 in ENE 8.0 mph 12.9 mph 73 % 0.0 in
13:47 14.1 °F 9.3 °F 1026.0 in East 4.8 mph 11.3 mph 73 % 0.0 in
13:52 14.3 °F 9.3 °F 1026.0 in East 4.8 mph 11.3 mph 72 % 0.0 in
13:57 14.3 °F 9.7 °F 1026.0 in NE 6.4 mph 9.7 mph 74 % 0.0 in
14:02 14.3 °F 9.3 °F 1026.0 in NNW 4.8 mph 9.7 mph 72 % 0.0 in
14:12 14.6 °F 9.4 °F 1025.6 in ENE 6.4 mph 11.3 mph 71 % 0.0 in
14:17 14.7 °F 9.1 °F 1025.6 in NNE 6.4 mph 11.3 mph 69 % 0.0 in
14:22 14.7 °F 9.5 °F 1025.3 in NE 1.6 mph 11.3 mph 71 % 0.0 in
14:32 14.8 °F 9.6 °F 1025.3 in Calm   16.1 mph 71 % 0.0 in
14:37 14.9 °F 9.5 °F 1025.3 in ENE 6.4 mph 16.1 mph 70 % 0.0 in
14:42 14.9 °F 9.7 °F 1025.3 in East 6.4 mph 11.3 mph 71 % 0.0 in
14:47 15.0 °F 8.9 °F 1025.3 in East 3.2 mph 11.3 mph 67 % 0.0 in
14:52 15.0 °F 9.1 °F 1025.3 in ENE 3.2 mph 8.0 mph 68 % 0.0 in
14:57 15.0 °F 9.1 °F 1025.3 in NNW 3.2 mph 11.3 mph 68 % 0.0 in
15:02 15.1 °F 9.2 °F 1025.3 in North 6.4 mph 11.3 mph 68 % 0.0 in
15:07 15.2 °F 9.1 °F 1025.3 in Calm   11.3 mph 67 % 0.0 in
15:12 15.4 °F 9.3 °F 1025.3 in East 4.8 mph 9.7 mph 67 % 0.0 in
15:17 15.5 °F 8.9 °F 1025.3 in NE 3.2 mph 9.7 mph 65 % 0.0 in
15:22 15.5 °F 8.9 °F 1024.9 in East 3.2 mph 8.0 mph 65 % 0.0 in
15:27 15.4 °F 8.9 °F 1024.9 in NE 6.4 mph 8.0 mph 65 % 0.0 in
15:32 15.3 °F 9.0 °F 1024.9 in NE 3.2 mph 11.3 mph 66 % 0.0 in
15:37 15.3 °F 8.8 °F 1024.9 in NNW 3.2 mph 12.9 mph 65 % 0.0 in
15:42 15.4 °F 8.9 °F 1024.9 in ENE 3.2 mph 12.9 mph 65 % 0.0 in
15:47 15.4 °F 9.1 °F 1024.9 in NE 4.8 mph 9.7 mph 66 % 0.0 in
15:52 15.4 °F 9.3 °F 1024.9 in Calm   8.0 mph 67 % 0.0 in
15:57 15.6 °F 9.3 °F 1024.6 in East 3.2 mph 8.0 mph 66 % 0.0 in
16:02 15.6 °F 9.3 °F 1024.6 in NE 3.2 mph 8.0 mph 66 % 0.0 in
16:12 15.6 °F 9.3 °F 1024.6 in East 1.6 mph 9.7 mph 66 % 0.0 in
16:17 15.6 °F 9.3 °F 1024.6 in NE 4.8 mph 9.7 mph 66 % 0.0 in
16:22 15.5 °F 9.2 °F 1024.6 in NE 3.2 mph 11.3 mph 66 % 0.0 in
16:27 15.6 °F 9.3 °F 1024.6 in NE 8.0 mph 11.3 mph 66 % 0.0 in
16:32 15.6 °F 9.5 °F 1024.6 in NE 3.2 mph 11.3 mph 67 % 0.0 in
16:37 15.6 °F 9.0 °F 1024.6 in NNE 9.7 mph 11.3 mph 65 % 0.0 in
16:42 15.5 °F 8.5 °F 1024.6 in NE 9.7 mph 12.9 mph 63 % 0.0 in
16:47 15.4 °F 7.9 °F 1024.3 in North 8.0 mph 14.5 mph 61 % 0.0 in
16:52 15.4 °F 7.9 °F 1024.3 in NNE 3.2 mph 14.5 mph 61 % 0.0 in
16:57 15.4 °F 7.9 °F 1024.3 in NNE 8.0 mph 14.5 mph 61 % 0.0 in
17:02 15.4 °F 7.9 °F 1024.3 in NNW 6.4 mph 14.5 mph 61 % 0.0 in
17:07 15.4 °F 7.9 °F 1024.3 in NE 3.2 mph 11.3 mph 61 % 0.0 in
17:12 15.3 °F 7.3 °F 1023.9 in NE 9.7 mph 11.3 mph 59 % 0.0 in
17:17 15.3 °F 7.8 °F 1023.9 in NE 4.8 mph 12.9 mph 61 % 0.0 in
17:22 15.4 °F 8.6 °F 1023.9 in NE 8.0 mph 12.9 mph 64 % 0.0 in
17:32 15.2 °F 8.2 °F 1023.9 in ENE 8.0 mph 14.5 mph 63 % 0.0 in
17:42 15.1 °F 8.6 °F 1024.3 in East 3.2 mph 14.5 mph 65 % 0.0 in
17:52 14.8 °F 8.7 °F 1023.9 in ENE 1.6 mph 12.9 mph 67 % 0.0 in
17:57 14.7 °F 8.9 °F 1024.3 in NNE 3.2 mph 11.3 mph 68 % 0.0 in
18:02 14.6 °F 8.1 °F 1023.9 in North 4.8 mph 11.3 mph 65 % 0.0 in
18:12 14.3 °F 8.3 °F 1024.3 in NE 3.2 mph 11.3 mph 67 % 0.0 in
18:17 14.1 °F 8.1 °F 1023.9 in NE 3.2 mph 9.7 mph 67 % 0.0 in
18:22 14.0 °F 8.0 °F 1023.9 in NE 6.4 mph 9.7 mph 67 % 0.0 in
18:32 13.8 °F 8.0 °F 1024.3 in NNE 6.4 mph 9.7 mph 68 % 0.0 in
18:37 13.7 °F 7.9 °F 1023.9 in NE 6.4 mph 8.0 mph 68 % 0.0 in
18:42 13.6 °F 7.8 °F 1023.9 in NE 4.8 mph 8.0 mph 68 % 0.0 in
18:47 13.5 °F 7.7 °F 1023.9 in NE 4.8 mph 8.0 mph 68 % 0.0 in
18:52 13.4 °F 7.8 °F 1023.9 in NE 3.2 mph 8.0 mph 69 % 0.0 in
18:57 13.2 °F 8.1 °F 1023.9 in NNE 6.4 mph 8.0 mph 71 % 0.0 in
19:02 13.1 °F 8.0 °F 1023.9 in NE 4.8 mph 9.7 mph 71 % 0.0 in
19:12 12.9 °F 7.8 °F 1023.9 in NNE 6.4 mph 9.7 mph 71 % 0.0 in
19:17 12.7 °F 7.8 °F 1023.9 in North 3.2 mph 8.0 mph 72 % 0.0 in
19:22 12.4 °F 7.7 °F 1024.3 in NNE 4.8 mph 8.0 mph 73 % 0.0 in
19:27 12.3 °F 7.8 °F 1024.3 in NNE 6.4 mph 8.0 mph 74 % 0.0 in
19:32 12.4 °F 7.5 °F 1024.3 in NNE 4.8 mph 8.0 mph 72 % 0.0 in
19:37 12.4 °F 7.5 °F 1024.3 in NE 6.4 mph 8.0 mph 72 % 0.0 in
19:42 12.4 °F 7.5 °F 1024.3 in NNE 6.4 mph 9.7 mph 72 % 0.0 in
19:47 12.4 °F 7.5 °F 1024.3 in NNE 4.8 mph 9.7 mph 72 % 0.0 in
19:52 12.1 °F 7.4 °F 1024.3 in NE 3.2 mph 9.7 mph 73 % 0.0 in
19:57 11.8 °F 7.3 °F 1024.3 in North 1.6 mph 9.7 mph 74 % 0.0 in
20:02 11.6 °F 7.3 °F 1024.3 in NE 3.2 mph 8.0 mph 75 % 0.0 in
20:07 11.4 °F 7.3 °F 1024.3 in NNE 3.2 mph 6.4 mph 76 % 0.0 in
20:12 11.2 °F 7.3 °F 1024.3 in NNE 1.6 mph 4.8 mph 77 % 0.0 in
20:17 11.1 °F 7.2 °F 1024.3 in Calm   4.8 mph 77 % 0.0 in
20:22 10.9 °F 7.2 °F 1024.3 in NE 1.6 mph 3.2 mph 78 % 0.0 in
20:27 10.8 °F 7.3 °F 1024.3 in Calm   4.8 mph 79 % 0.0 in
20:32 10.7 °F 7.2 °F 1024.3 in Calm   4.8 mph 79 % 0.0 in
20:37 10.6 °F 7.1 °F 1023.9 in Calm   4.8 mph 79 % 0.0 in
20:42 10.4 °F 7.1 °F 1024.3 in NNE 1.6 mph 3.2 mph 80 % 0.0 in
20:47 10.4 °F 6.9 °F 1023.9 in Calm   3.2 mph 79 % 0.0 in
20:52 10.4 °F 6.9 °F 1024.3 in Calm   3.2 mph 79 % 0.0 in
20:57 10.3 °F 6.8 °F 1023.9 in Calm   4.8 mph 79 % 0.0 in
21:02 10.3 °F 7.0 °F 1023.9 in Calm   4.8 mph 80 % 0.0 in
21:12 10.1 °F 6.8 °F 1023.6 in Calm   4.8 mph 80 % 0.0 in
21:17 10.1 °F 6.8 °F 1023.9 in Calm   4.8 mph 80 % 0.0 in
21:22 10.1 °F 6.8 °F 1023.9 in Calm   4.8 mph 80 % 0.0 in
21:27 10.1 °F 6.8 °F 1023.9 in Calm   3.2 mph 80 % 0.0 in
21:32 10.1 °F 6.8 °F 1023.9 in NNW 1.6 mph 3.2 mph 80 % 0.0 in
21:37 9.9 °F 6.6 °F 1023.9 in Calm   3.2 mph 80 % 0.0 in
21:42 9.8 °F 6.7 °F 1023.9 in Calm   1.6 mph 81 % 0.0 in
21:47 9.8 °F 6.7 °F 1023.9 in Calm   4.8 mph 81 % 0.0 in
21:52 9.7 °F 6.6 °F 1023.9 in Calm   4.8 mph 81 % 0.0 in
21:57 9.7 °F 6.6 °F 1023.9 in Calm   1.6 mph 81 % 0.0 in
22:02 9.7 °F 6.6 °F 1023.9 in Calm   1.6 mph 81 % 0.0 in
22:12 9.7 °F 6.6 °F 1023.6 in NNE 3.2 mph 4.8 mph 81 % 0.0 in
22:17 9.7 °F 6.6 °F 1023.6 in Calm   4.8 mph 81 % 0.0 in
22:22 9.7 °F 6.6 °F 1023.6 in Calm   4.8 mph 81 % 0.0 in
22:27 9.7 °F 6.6 °F 1023.6 in North 1.6 mph 4.8 mph 81 % 0.0 in
22:32 9.7 °F 6.6 °F 1023.6 in NNE 1.6 mph 4.8 mph 81 % 0.0 in
22:37 9.6 °F 6.5 °F 1023.6 in NNE 1.6 mph 4.8 mph 81 % 0.0 in
22:42 9.6 °F 6.5 °F 1023.6 in Calm   4.8 mph 81 % 0.0 in
22:47 9.5 °F 6.4 °F 1023.6 in North 1.6 mph 4.8 mph 81 % 0.0 in
22:52 9.6 °F 6.5 °F 1023.6 in Calm   3.2 mph 81 % 0.0 in
22:57 9.5 °F 6.4 °F 1023.6 in NNW 1.6 mph 3.2 mph 81 % 0.0 in
23:02 9.4 °F 6.3 °F 1023.6 in North 1.6 mph 3.2 mph 81 % 0.0 in
23:07 9.4 °F 6.3 °F 1023.6 in Calm   3.2 mph 81 % 0.0 in
23:12 9.4 °F 6.3 °F 1023.6 in Calm   3.2 mph 81 % 0.0 in
23:17 9.3 °F 6.2 °F 1023.2 in NE 3.2 mph 3.2 mph 81 % 0.0 in
23:22 9.4 °F 6.3 °F 1023.2 in NNE 1.6 mph 6.4 mph 81 % 0.0 in
23:27 9.4 °F 6.1 °F 1023.2 in NNE 1.6 mph 6.4 mph 80 % 0.0 in
23:32 9.3 °F 6.2 °F 1023.2 in Calm   6.4 mph 81 % 0.0 in
23:37 9.2 °F 6.1 °F 1023.2 in Calm   4.8 mph 81 % 0.0 in
23:42 9.2 °F 6.1 °F 1023.2 in Calm   1.6 mph 81 % 0.0 in
23:47 9.2 °F 6.1 °F 1023.2 in ENE 1.6 mph 1.6 mph 81 % 0.0 in
23:52 9.2 °F 5.9 °F 1023.2 in Calm   1.6 mph 80 % 0.0 in
23:57 9.1 °F 5.8 °F 1023.2 in Calm   1.6 mph 80 % 0.0 in
Meteo18
Compliments of Weather Underground - 4 mb

Script developed by  Jim McMurry - jmcmurry@mwt.net Adapted for the template by  Wim van der Kuil - Leuven-Template.eu

You find our weather info also at:

European Weather Network

Weather Underground

Equipment we use:

Weather-station
Davis Vue

Weather-program
Meteobridge

Weather-server
Raspberry PI 2 B+

Provider
1 and 1

Davis Vue

Meteobridge

Raspberry PI 2 B+

1 and 1